Cimarron, Colorado
Current Conditions -  °F | °C
As of 7:53 AM on Saturday 25 Oct 2014 (Local Time) from KMTJ Reporting Station
Clear Clear  
Wind Chill: 33°   Ceiling: Unl
Heat Index: 39°   Visibility: 10mi
Dew Point: 27°   Wind: 8mph
Humidity: 62%   Direction: 180°S
Pressure: 30.33"   Gusts: NA
Location:  38.44°N, 107.56°W
Report Text: KMTJ 251353Z AUTO 18007KT 10SM CLR 04/M03 A3033 RMK AO2 SLP240 T00391028
Loading
Personal Weather Stations






























Interactive Weather Map
Tropical Storm Tracking
New forecast layout! Learn more

10-Day Weather Forecast

Advertisements
Track Severe Weather on mobile